Terminal Aerodrome Forecast
Issued by NWS

Home | Current Version | Previous Version | Text Only | Print | Product List | Glossary Off
Versions: 1 2 3 4 5 6 7 8 9 10 11 12 13 14 15 16 17 18 19 20 21 22

000
FTUS43 KGRB 231736
TAFMTW
TAF
KMTW 231736Z 2318/2418 05006KT P6SM -SHRA OVC008
      TEMPO 2319/2323 6SM -SHRA BKN013 OVC020
     FM240300 05007KT 6SM -SHRA OVC013
     FM240600 03010G16KT P6SM -SHRA OVC007
     FM241700 03013G19KT P6SM -SHRA OVC011=

USA.gov is the U.S. government's official web portal to all federal, state and local government web resources and services.